createdAt,value
2019-06-08T00:01:32.042Z,0.00
2019-06-08T00:02:32.101Z,0.00
2019-06-08T00:04:25.142Z,0.00
2019-06-08T00:05:25.159Z,0.00
2019-06-08T00:07:18.892Z,0.00
2019-06-08T00:08:19.150Z,0.00
2019-06-08T00:10:11.208Z,0.00
2019-06-08T00:11:11.250Z,0.00
2019-06-08T00:13:04.269Z,0.00
2019-06-08T00:14:04.298Z,0.00
2019-06-08T00:15:57.281Z,0.00
2019-06-08T00:16:57.342Z,0.00
2019-06-08T00:18:50.358Z,0.00
2019-06-08T00:19:50.388Z,0.00
2019-06-08T00:21:43.376Z,0.00
2019-06-08T00:22:43.441Z,0.00
2019-06-08T00:24:36.457Z,0.00
2019-06-08T00:25:36.486Z,0.00
2019-06-08T00:27:29.481Z,0.00
2019-06-08T00:28:29.542Z,0.00
2019-06-08T00:30:22.543Z,0.00
2019-06-08T00:31:22.593Z,0.00
2019-06-08T00:33:16.871Z,0.00
2019-06-08T00:34:16.568Z,0.00
2019-06-08T00:36:08.656Z,0.00
2019-06-08T00:37:08.683Z,0.00
2019-06-08T00:39:01.669Z,0.00
2019-06-08T00:40:01.736Z,0.00
2019-06-08T00:41:54.746Z,0.00
2019-06-08T00:42:54.772Z,0.00
2019-06-08T00:44:47.760Z,0.00
2019-06-08T00:45:47.822Z,0.00
2019-06-08T00:47:47.502Z,0.00
2019-06-08T00:48:40.872Z,0.00
2019-06-08T00:50:33.861Z,0.00
2019-06-08T00:51:33.924Z,0.00
2019-06-08T00:53:26.925Z,0.00
2019-06-08T00:54:26.970Z,0.00
2019-06-08T00:56:19.990Z,0.00
2019-06-08T00:57:20.017Z,0.00
2019-06-08T00:59:13.012Z,0.00
2019-06-08T01:00:13.060Z,0.00
2019-06-08T01:02:06.048Z,0.00
2019-06-08T01:03:06.110Z,0.00
2019-06-08T01:04:59.110Z,0.00
2019-06-08T01:05:59.154Z,0.00
2019-06-08T01:07:52.158Z,0.00
2019-06-08T01:08:52.200Z,0.00
2019-06-08T01:10:45.182Z,0.00
2019-06-08T01:11:45.242Z,0.00
2019-06-08T01:13:38.245Z,0.00
2019-06-08T01:14:38.293Z,0.00
2019-06-08T01:16:31.285Z,0.00
2019-06-08T01:17:31.347Z,0.00
2019-06-08T01:19:25.191Z,0.00
2019-06-08T01:20:25.628Z,0.00
2019-06-08T01:22:17.397Z,0.00
2019-06-08T01:23:17.440Z,0.00
2019-06-08T01:25:10.428Z,0.00
2019-06-08T01:26:10.487Z,0.00
2019-06-08T01:28:03.482Z,0.00
2019-06-08T01:29:03.531Z,0.00
2019-06-08T01:30:56.519Z,0.00
2019-06-08T01:31:56.582Z,0.00
2019-06-08T01:33:49.584Z,0.00
2019-06-08T01:34:49.642Z,0.00
2019-06-08T01:36:42.640Z,0.00
2019-06-08T01:37:42.673Z,0.00
2019-06-08T01:39:35.657Z,0.00
2019-06-08T01:40:35.718Z,0.00
2019-06-08T01:42:29.733Z,0.00
2019-06-08T01:43:29.652Z,0.00
2019-06-08T01:45:21.758Z,0.00
2019-06-08T01:46:21.931Z,0.00
2019-06-08T01:48:20.208Z,0.00
2019-06-08T01:49:14.874Z,0.00
2019-06-08T01:51:07.864Z,0.00
2019-06-08T01:52:07.918Z,0.00
2019-06-08T01:54:00.929Z,0.00
2019-06-08T01:55:00.972Z,0.00
2019-06-08T01:56:53.958Z,0.00
2019-06-08T01:57:54.021Z,0.00
2019-06-08T01:59:47.028Z,0.00
2019-06-08T02:00:47.065Z,0.00
2019-06-08T02:02:40.082Z,0.00
2019-06-08T02:03:40.117Z,0.00
2019-06-08T02:05:34.447Z,0.00
2019-06-08T02:06:34.555Z,0.00
2019-06-08T02:08:26.550Z,0.00
2019-06-08T02:09:26.563Z,0.00
2019-06-08T02:11:19.190Z,0.00
2019-06-08T02:12:19.251Z,0.00
2019-06-08T02:14:12.301Z,0.00
2019-06-08T02:15:12.327Z,0.00
2019-06-08T02:17:05.314Z,0.00
2019-06-08T02:18:05.378Z,0.00
2019-06-08T02:19:58.377Z,0.00
2019-06-08T02:20:58.422Z,0.00
2019-06-08T02:22:51.464Z,0.00
2019-06-08T02:23:51.483Z,0.00
2019-06-08T02:25:44.482Z,0.00
2019-06-08T02:26:44.533Z,0.00
2019-06-08T02:28:37.518Z,0.00
2019-06-08T02:29:37.571Z,0.00
2019-06-08T02:31:31.301Z,0.00
2019-06-08T02:32:32.697Z,0.00
2019-06-08T02:34:23.632Z,4.00
2019-06-08T02:35:23.682Z,4.00
2019-06-08T02:37:16.678Z,4.00
2019-06-08T02:38:16.720Z,4.00
2019-06-08T02:40:09.705Z,4.00
2019-06-08T02:41:09.775Z,8.00
2019-06-08T02:43:02.781Z,4.00
2019-06-08T02:44:02.825Z,8.00
2019-06-08T02:45:55.825Z,4.00
2019-06-08T02:46:55.867Z,8.00
2019-06-08T02:49:03.246Z,12.00
2019-06-08T02:49:48.914Z,12.00
2019-06-08T02:51:41.917Z,16.00
2019-06-08T02:52:41.984Z,16.00
2019-06-08T02:54:37.219Z,16.00
2019-06-08T02:55:35.704Z,16.00
2019-06-08T02:57:29.157Z,12.00
2019-06-08T02:58:29.229Z,12.00
2019-06-08T03:00:21.062Z,24.00
2019-06-08T03:01:21.122Z,20.00
2019-06-08T03:03:14.124Z,20.00
2019-06-08T03:04:14.175Z,16.00
2019-06-08T03:06:07.691Z,20.00
2019-06-08T03:07:07.749Z,20.00
2019-06-08T03:09:00.715Z,20.00
2019-06-08T03:10:00.779Z,28.00
2019-06-08T03:11:53.775Z,36.00
2019-06-08T03:12:53.819Z,36.00
2019-06-08T03:14:46.804Z,48.00
2019-06-08T03:15:46.865Z,52.00
2019-06-08T03:17:40.469Z,64.00
2019-06-08T03:18:40.645Z,84.00
2019-06-08T03:20:33.460Z,112.00
2019-06-08T03:21:33.972Z,156.00
2019-06-08T03:23:25.979Z,168.00
2019-06-08T03:24:26.011Z,164.00
2019-06-08T03:26:19.084Z,148.00
2019-06-08T03:27:19.044Z,148.00
2019-06-08T03:29:12.065Z,148.00
2019-06-08T03:30:17.314Z,160.00
2019-06-08T03:32:05.090Z,120.00
2019-06-08T03:33:05.160Z,88.00
2019-06-08T03:34:58.167Z,96.00
2019-06-08T03:35:58.773Z,112.00
2019-06-08T03:37:51.202Z,136.00
2019-06-08T03:38:51.238Z,160.00
2019-06-08T03:40:45.340Z,160.00
2019-06-08T03:41:45.172Z,176.00
2019-06-08T03:43:38.170Z,176.00
2019-06-08T03:44:38.439Z,200.00
2019-06-08T03:46:30.337Z,312.00
2019-06-08T03:47:30.381Z,320.00
2019-06-08T03:49:40.439Z,364.00
2019-06-08T03:50:23.424Z,452.00
2019-06-08T03:52:16.410Z,396.00
2019-06-08T03:53:16.470Z,460.00
2019-06-08T03:55:09.470Z,460.00
2019-06-08T03:56:09.521Z,488.00
2019-06-08T03:58:02.508Z,452.00
2019-06-08T03:59:02.568Z,432.00
2019-06-08T04:00:55.570Z,432.00
2019-06-08T04:01:55.614Z,420.00
2019-06-08T04:03:50.313Z,468.00
2019-06-08T04:04:50.005Z,468.00
2019-06-08T04:06:43.684Z,720.00
2019-06-08T04:07:44.094Z,620.00
2019-06-08T04:09:35.236Z,692.00
2019-06-08T04:10:35.279Z,548.00
2019-06-08T04:12:28.288Z,592.00
2019-06-08T04:13:28.324Z,560.00
2019-06-08T04:15:21.318Z,408.00
2019-06-08T04:16:21.369Z,432.00
2019-06-08T04:18:14.371Z,524.00
2019-06-08T04:19:14.428Z,512.00
2019-06-08T04:21:07.421Z,536.00
2019-06-08T04:22:07.486Z,668.00
2019-06-08T04:24:00.485Z,600.00
2019-06-08T04:25:00.530Z,560.00
2019-06-08T04:26:53.508Z,468.00
2019-06-08T04:27:53.573Z,496.00
2019-06-08T04:29:46.577Z,508.00
2019-06-08T04:30:49.174Z,608.00
2019-06-08T04:32:40.715Z,732.00
2019-06-08T04:33:40.368Z,472.00
2019-06-08T04:35:32.644Z,368.00
2019-06-08T04:36:32.705Z,336.00
2019-06-08T04:38:25.715Z,352.00
2019-06-08T04:39:25.751Z,284.00
2019-06-08T04:41:18.761Z,656.00
2019-06-08T04:42:18.802Z,728.00
2019-06-08T04:44:11.812Z,728.00
2019-06-08T04:45:11.848Z,904.00
2019-06-08T04:47:04.846Z,868.00
2019-06-08T04:48:09.368Z,728.00
2019-06-08T04:49:57.891Z,1012.00
2019-06-08T04:50:57.954Z,816.00
2019-06-08T04:52:50.961Z,900.00
2019-06-08T04:53:50.997Z,1156.00
2019-06-08T04:55:45.104Z,1300.00
2019-06-08T04:56:44.894Z,1228.00
2019-06-08T04:58:39.087Z,772.00
2019-06-08T04:59:38.826Z,684.00
2019-06-08T05:01:30.076Z,1164.00
2019-06-08T05:02:30.145Z,952.00
2019-06-08T05:04:23.159Z,836.00
2019-06-08T05:05:23.201Z,976.00
2019-06-08T05:07:16.204Z,816.00
2019-06-08T05:08:16.243Z,944.00
2019-06-08T05:10:09.246Z,1012.00
2019-06-08T05:11:09.292Z,800.00
2019-06-08T05:13:02.274Z,684.00
2019-06-08T05:14:02.345Z,612.00
2019-06-08T05:15:55.336Z,632.00
2019-06-08T05:16:55.388Z,520.00
2019-06-08T05:18:49.668Z,1092.00
2019-06-08T05:19:50.311Z,1540.00
2019-06-08T05:21:41.642Z,1048.00
2019-06-08T05:22:41.562Z,1036.00
2019-06-08T05:24:34.473Z,836.00
2019-06-08T05:25:34.533Z,800.00
2019-06-08T05:27:27.719Z,1220.00
2019-06-08T05:28:27.582Z,1148.00
2019-06-08T05:30:20.580Z,1192.00
2019-06-08T05:31:20.626Z,900.00
2019-06-08T05:33:13.649Z,1832.00
2019-06-08T05:34:13.694Z,1956.00
2019-06-08T05:36:06.701Z,3100.00
2019-06-08T05:37:06.731Z,3724.00
2019-06-08T05:38:59.715Z,3832.00
2019-06-08T05:39:59.773Z,2876.00
2019-06-08T05:41:52.779Z,2052.00
2019-06-08T05:42:52.832Z,2100.00
2019-06-08T05:44:45.814Z,2404.00
2019-06-08T05:45:45.875Z,2132.00
2019-06-08T05:47:39.756Z,1860.00
2019-06-08T05:48:39.752Z,1976.00
2019-06-08T05:50:31.942Z,1800.00
2019-06-08T05:51:31.992Z,1832.00
2019-06-08T05:53:24.987Z,1640.00
2019-06-08T05:54:25.028Z,2076.00
2019-06-08T05:56:18.032Z,2168.00
2019-06-08T05:57:18.075Z,1768.00
2019-06-08T05:59:11.058Z,1688.00
2019-06-08T06:00:11.183Z,1500.00
2019-06-08T06:02:04.127Z,1724.00
2019-06-08T06:03:04.172Z,1848.00
2019-06-08T06:04:57.181Z,1692.00
2019-06-08T06:05:57.213Z,1720.00
2019-06-08T06:07:51.240Z,2368.00
2019-06-08T06:08:50.946Z,2764.00
2019-06-08T06:10:43.249Z,2692.00
2019-06-08T06:11:44.721Z,2404.00
2019-06-08T06:13:36.306Z,2428.00
2019-06-08T06:14:37.015Z,1828.00
2019-06-08T06:16:29.352Z,1580.00
2019-06-08T06:17:29.411Z,1504.00
2019-06-08T06:19:22.416Z,1292.00
2019-06-08T06:20:22.462Z,1792.00
2019-06-08T06:22:15.441Z,1752.00
2019-06-08T06:23:15.501Z,1888.00
2019-06-08T06:25:08.504Z,1516.00
2019-06-08T06:26:08.547Z,1764.00
2019-06-08T06:28:01.597Z,1548.00
2019-06-08T06:29:01.609Z,1636.00
2019-06-08T06:30:54.614Z,1516.00
2019-06-08T06:31:54.658Z,1760.00
2019-06-08T06:33:48.021Z,1624.00
2019-06-08T06:34:47.974Z,1984.00
2019-06-08T06:36:41.695Z,1688.00
2019-06-08T06:37:41.819Z,1728.00
2019-06-08T06:39:33.766Z,2088.00
2019-06-08T06:40:33.810Z,1836.00
2019-06-08T06:42:26.794Z,1732.00
2019-06-08T06:43:26.853Z,2128.00
2019-06-08T06:45:19.855Z,2268.00
2019-06-08T06:46:19.898Z,3048.00
2019-06-08T06:48:12.903Z,2448.00
2019-06-08T06:49:12.940Z,2976.00
2019-06-08T06:51:05.939Z,2148.00
2019-06-08T06:52:05.995Z,2404.00
2019-06-08T06:53:59.004Z,2608.00
2019-06-08T06:54:59.048Z,2408.00
2019-06-08T06:56:52.060Z,2856.00
2019-06-08T06:57:53.430Z,2684.00
2019-06-08T06:59:45.662Z,2332.00
2019-06-08T07:00:45.268Z,2180.00
2019-06-08T07:02:38.210Z,2856.00
2019-06-08T07:03:38.195Z,3644.00
2019-06-08T07:05:31.211Z,3176.00
2019-06-08T07:06:31.256Z,2940.00
2019-06-08T07:08:24.263Z,3020.00
2019-06-08T07:09:24.298Z,3628.00
2019-06-08T07:11:17.277Z,4136.00
2019-06-08T07:12:17.340Z,3728.00
2019-06-08T07:14:10.342Z,3356.00
2019-06-08T07:15:10.382Z,3492.00
2019-06-08T07:17:03.371Z,3484.00
2019-06-08T07:18:03.437Z,2700.00
2019-06-08T07:19:56.432Z,3088.00
2019-06-08T07:20:56.473Z,3008.00
2019-06-08T07:22:50.226Z,3884.00
2019-06-08T07:23:51.138Z,3640.00
2019-06-08T07:25:42.501Z,4516.00
2019-06-08T07:26:42.570Z,4076.00
2019-06-08T07:28:35.566Z,3792.00
2019-06-08T07:29:35.607Z,4264.00
2019-06-08T07:31:28.636Z,3724.00
2019-06-08T07:32:28.666Z,5064.00
2019-06-08T07:34:21.673Z,4564.00
2019-06-08T07:35:21.718Z,3736.00
2019-06-08T07:37:14.733Z,4716.00
2019-06-08T07:38:14.757Z,4864.00
2019-06-08T07:40:07.769Z,3240.00
2019-06-08T07:41:07.811Z,3732.00
2019-06-08T07:43:00.786Z,3532.00
2019-06-08T07:44:00.874Z,3208.00
2019-06-08T07:45:54.223Z,3212.00
2019-06-08T07:46:53.901Z,2780.00
2019-06-08T07:48:48.070Z,2464.00
2019-06-08T07:49:47.088Z,3096.00
2019-06-08T07:51:39.937Z,4088.00
2019-06-08T07:52:39.998Z,3332.00
2019-06-08T07:54:32.990Z,3120.00
2019-06-08T07:55:33.027Z,3196.00
2019-06-08T07:57:26.050Z,3076.00
2019-06-08T07:58:26.087Z,3368.00
2019-06-08T08:00:19.115Z,4716.00
2019-06-08T08:01:34.990Z,4640.00
2019-06-08T08:03:12.137Z,4056.00
2019-06-08T08:04:12.192Z,4220.00
2019-06-08T08:06:05.714Z,3808.00
2019-06-08T08:07:05.743Z,4356.00
2019-06-08T08:08:58.955Z,4668.00
2019-06-08T08:09:58.921Z,4620.00
2019-06-08T08:11:52.865Z,4328.00
2019-06-08T08:12:52.689Z,4196.00
2019-06-08T08:14:44.850Z,3296.00
2019-06-08T08:15:44.894Z,3544.00
2019-06-08T08:17:37.908Z,3880.00
2019-06-08T08:18:37.939Z,2760.00
2019-06-08T08:20:30.923Z,3560.00
2019-06-08T08:21:30.992Z,3452.00
2019-06-08T08:23:24.009Z,5104.00
2019-06-08T08:24:24.040Z,4256.00
2019-06-08T08:26:17.057Z,3616.00
2019-06-08T08:27:17.917Z,2440.00
2019-06-08T08:29:10.103Z,3148.00
2019-06-08T08:30:10.154Z,3768.00
2019-06-08T08:32:03.158Z,4064.00
2019-06-08T08:33:03.540Z,4048.00
2019-06-08T08:34:58.747Z,4776.00
2019-06-08T08:35:58.614Z,4828.00
2019-06-08T08:37:53.105Z,6064.00
2019-06-08T08:38:51.554Z,4156.00
2019-06-08T08:40:42.302Z,5108.00
2019-06-08T08:41:42.346Z,4836.00
2019-06-08T08:43:37.576Z,3980.00
2019-06-08T08:44:37.803Z,4928.00
2019-06-08T08:46:28.690Z,7928.00
2019-06-08T08:47:30.771Z,7208.00
2019-06-08T08:49:21.490Z,5736.00
2019-06-08T08:50:21.531Z,6776.00
2019-06-08T08:52:14.529Z,5392.00
2019-06-08T08:53:14.565Z,5112.00
2019-06-08T08:55:08.280Z,6796.00
2019-06-08T08:56:07.623Z,6456.00
2019-06-08T08:58:02.091Z,7836.00
2019-06-08T08:59:01.651Z,10324.00
2019-06-08T09:00:54.210Z,12224.00
2019-06-08T09:01:54.774Z,9660.00
2019-06-08T09:03:48.261Z,5816.00
2019-06-08T09:04:47.737Z,7436.00
2019-06-08T09:06:40.273Z,7372.00
2019-06-08T09:07:40.329Z,7952.00
2019-06-08T09:09:33.353Z,6448.00
2019-06-08T09:10:33.384Z,10568.00
2019-06-08T09:12:27.710Z,10496.00
2019-06-08T09:13:28.141Z,7680.00
2019-06-08T09:15:19.456Z,9228.00
2019-06-08T09:16:19.496Z,12492.00
2019-06-08T09:18:12.479Z,8752.00
2019-06-08T09:19:12.538Z,8576.00
2019-06-08T09:21:08.161Z,7740.00
2019-06-08T09:22:05.611Z,6588.00
2019-06-08T09:24:01.984Z,5872.00
2019-06-08T09:25:02.547Z,7836.00
2019-06-08T09:26:52.941Z,7816.00
2019-06-08T09:27:52.745Z,7368.00
2019-06-08T09:29:44.681Z,7988.00
2019-06-08T09:30:44.740Z,6380.00
2019-06-08T09:32:38.308Z,6260.00
2019-06-08T09:33:38.828Z,7672.00
2019-06-08T09:35:30.781Z,11808.00
2019-06-08T09:36:30.835Z,10564.00
2019-06-08T09:38:23.866Z,17600.00
2019-06-08T09:39:23.886Z,23808.00
2019-06-08T09:41:18.648Z,23040.00
2019-06-08T09:42:20.940Z,26336.00
2019-06-08T09:44:11.535Z,18016.00
2019-06-08T09:45:10.007Z,26240.00
2019-06-08T09:47:09.445Z,15892.00
2019-06-08T09:48:05.283Z,21792.00
2019-06-08T09:49:58.804Z,19616.00
2019-06-08T09:50:57.675Z,19904.00
2019-06-08T09:52:49.101Z,8768.00
2019-06-08T09:53:49.164Z,8284.00
2019-06-08T09:55:42.132Z,10648.00
2019-06-08T09:56:42.230Z,8936.00
2019-06-08T09:58:35.209Z,7504.00
2019-06-08T09:59:35.239Z,8304.00
2019-06-08T10:01:28.753Z,8996.00
2019-06-08T10:02:28.483Z,8732.00
2019-06-08T10:04:21.338Z,9968.00
2019-06-08T10:05:21.345Z,10164.00
2019-06-08T10:07:14.353Z,9916.00
2019-06-08T10:08:14.402Z,7028.00
2019-06-08T10:10:09.870Z,5372.00
2019-06-08T10:11:09.673Z,8052.00
2019-06-08T10:13:03.734Z,8448.00
2019-06-08T10:14:04.739Z,8872.00
2019-06-08T10:15:54.939Z,8216.00
2019-06-08T10:16:54.155Z,8864.00
2019-06-08T10:18:51.085Z,6096.00
2019-06-08T10:19:47.681Z,5952.00
2019-06-08T10:21:42.958Z,8024.00
2019-06-08T10:22:39.670Z,8836.00
2019-06-08T10:24:33.669Z,10132.00
2019-06-08T10:25:33.730Z,7844.00
2019-06-08T10:27:28.351Z,6780.00
2019-06-08T10:28:28.979Z,7656.00
2019-06-08T10:30:21.290Z,7604.00
2019-06-08T10:31:35.706Z,7684.00
2019-06-08T10:33:14.359Z,8988.00
2019-06-08T10:34:14.399Z,10100.00
2019-06-08T10:36:12.207Z,9076.00
2019-06-08T10:37:12.705Z,7676.00
2019-06-08T10:39:03.844Z,7680.00
2019-06-08T10:40:03.393Z,8384.00
2019-06-08T10:41:53.490Z,9408.00
2019-06-08T10:42:53.524Z,7256.00
2019-06-08T10:44:46.553Z,10068.00
2019-06-08T10:45:48.284Z,8492.00
2019-06-08T10:47:39.675Z,8788.00
2019-06-08T10:48:39.661Z,7088.00
2019-06-08T10:50:32.688Z,10596.00
2019-06-08T10:51:32.712Z,12756.00
2019-06-08T10:53:25.708Z,11988.00
2019-06-08T10:54:27.747Z,17280.00
2019-06-08T10:56:19.010Z,12024.00
2019-06-08T10:57:18.813Z,12272.00
2019-06-08T10:59:12.457Z,7824.00
2019-06-08T11:00:20.206Z,5816.00
2019-06-08T11:02:07.334Z,8420.00
2019-06-08T11:03:05.863Z,7892.00
2019-06-08T11:05:02.566Z,6176.00
2019-06-08T11:06:00.454Z,13620.00
2019-06-08T11:07:50.977Z,13904.00
2019-06-08T11:08:51.052Z,16608.00
2019-06-08T11:10:44.051Z,10232.00
2019-06-08T11:11:44.089Z,8784.00
2019-06-08T11:13:37.080Z,9916.00
2019-06-08T11:14:38.254Z,14052.00
2019-06-08T11:16:30.170Z,14408.00
2019-06-08T11:17:30.203Z,10072.00
2019-06-08T11:19:26.319Z,10888.00
2019-06-08T11:20:23.249Z,14276.00
2019-06-08T11:22:18.030Z,11104.00
2019-06-08T11:23:18.732Z,9424.00
2019-06-08T11:25:16.281Z,11416.00
2019-06-08T11:26:17.507Z,10828.00
2019-06-08T11:28:03.717Z,18848.00
2019-06-08T11:29:02.943Z,8660.00
2019-06-08T11:30:55.437Z,8532.00
2019-06-08T11:31:58.255Z,9028.00
2019-06-08T11:33:49.050Z,17632.00
2019-06-08T11:34:48.862Z,18560.00
2019-06-08T11:36:41.531Z,17696.00
2019-06-08T11:37:41.558Z,17088.00
2019-06-08T11:39:34.547Z,19296.00
2019-06-08T11:40:34.609Z,17504.00
2019-06-08T11:42:28.653Z,16832.00
2019-06-08T11:43:28.737Z,11096.00
2019-06-08T11:45:20.673Z,15772.00
2019-06-08T11:46:21.943Z,17280.00
2019-06-08T11:48:13.761Z,16768.00
2019-06-08T11:49:15.231Z,17728.00
2019-06-08T11:51:09.569Z,16896.00
2019-06-08T11:52:06.968Z,16328.00
2019-06-08T11:54:01.051Z,15440.00
2019-06-08T11:55:00.716Z,9536.00
2019-06-08T11:56:52.865Z,14296.00
2019-06-08T11:57:52.930Z,11068.00
2019-06-08T11:59:48.322Z,7436.00
2019-06-08T12:00:45.987Z,5928.00
2019-06-08T12:02:41.358Z,5996.00
2019-06-08T12:03:39.052Z,5988.00
2019-06-08T12:05:32.036Z,4644.00
2019-06-08T12:06:32.100Z,3716.00
2019-06-08T12:08:25.122Z,4248.00
2019-06-08T12:09:25.161Z,6692.00
2019-06-08T12:11:20.872Z,3836.00
2019-06-08T12:12:21.252Z,5112.00
2019-06-08T12:14:12.698Z,5908.00
2019-06-08T12:15:13.222Z,6952.00
2019-06-08T12:17:05.213Z,10452.00
2019-06-08T12:18:05.332Z,9580.00
2019-06-08T12:19:57.694Z,7224.00
2019-06-08T12:20:58.395Z,7248.00
2019-06-08T12:22:50.350Z,10668.00
2019-06-08T12:23:50.413Z,12904.00
2019-06-08T12:25:43.428Z,7840.00
2019-06-08T12:26:43.464Z,7256.00
2019-06-08T12:28:38.141Z,4848.00
2019-06-08T12:29:36.514Z,4864.00
2019-06-08T12:31:29.519Z,5244.00
2019-06-08T12:32:29.567Z,4916.00
2019-06-08T12:34:22.550Z,6024.00
2019-06-08T12:35:22.612Z,9532.00
2019-06-08T12:37:19.766Z,11872.00
2019-06-08T12:38:16.521Z,15524.00
2019-06-08T12:40:11.688Z,10100.00
2019-06-08T12:41:10.766Z,15244.00
2019-06-08T12:43:01.718Z,17536.00
2019-06-08T12:44:01.763Z,19008.00
2019-06-08T12:45:54.752Z,17600.00
2019-06-08T12:46:54.810Z,15644.00
2019-06-08T12:48:47.815Z,12956.00
2019-06-08T12:49:48.428Z,12232.00
2019-06-08T12:51:40.850Z,13904.00
2019-06-08T12:52:43.154Z,14400.00
2019-06-08T12:54:33.933Z,17536.00
2019-06-08T12:55:33.971Z,18144.00
2019-06-08T12:57:28.584Z,11296.00
2019-06-08T12:58:27.613Z,16256.00
2019-06-08T13:00:21.433Z,16008.00
2019-06-08T13:01:20.089Z,16308.00
2019-06-08T13:03:13.086Z,14544.00
2019-06-08T13:04:13.801Z,12820.00
2019-06-08T13:06:08.735Z,13668.00
2019-06-08T13:07:08.397Z,13696.00
2019-06-08T13:08:59.239Z,13216.00
2019-06-08T13:09:59.265Z,14184.00
2019-06-08T13:11:52.263Z,14508.00
2019-06-08T13:12:52.321Z,11928.00
2019-06-08T13:14:45.331Z,12348.00
2019-06-08T13:15:45.385Z,14740.00
2019-06-08T13:17:38.394Z,12184.00
2019-06-08T13:18:40.725Z,8812.00
2019-06-08T13:20:31.459Z,9596.00
2019-06-08T13:21:34.987Z,10212.00
2019-06-08T13:23:24.501Z,11528.00
2019-06-08T13:24:24.545Z,12424.00
2019-06-08T13:26:26.853Z,12776.00
2019-06-08T13:27:21.103Z,13304.00
2019-06-08T13:29:11.033Z,14724.00
2019-06-08T13:30:11.634Z,10816.00
2019-06-08T13:32:03.677Z,8648.00
2019-06-08T13:33:03.731Z,10372.00
2019-06-08T13:34:58.277Z,10700.00
2019-06-08T13:35:57.994Z,11308.00
2019-06-08T13:37:49.802Z,8844.00
2019-06-08T13:38:49.838Z,7568.00
2019-06-08T13:40:42.850Z,8072.00
2019-06-08T13:41:42.914Z,5504.00
2019-06-08T13:43:35.944Z,6372.00
2019-06-08T13:44:37.820Z,6844.00
2019-06-08T13:46:28.974Z,9080.00
2019-06-08T13:47:29.151Z,8508.00
2019-06-08T13:49:26.741Z,6768.00
2019-06-08T13:50:23.871Z,9876.00
2019-06-08T13:52:16.231Z,9604.00
2019-06-08T13:53:17.921Z,10840.00
2019-06-08T13:55:08.141Z,5740.00
2019-06-08T13:56:08.203Z,6684.00
2019-06-08T13:58:01.228Z,6036.00
2019-06-08T13:59:01.267Z,5264.00
2019-06-08T14:00:56.755Z,4960.00
2019-06-08T14:01:54.320Z,5192.00
2019-06-08T14:03:49.802Z,3684.00
2019-06-08T14:04:48.987Z,3584.00
2019-06-08T14:06:40.377Z,4132.00
2019-06-08T14:07:40.424Z,4140.00
2019-06-08T14:09:33.436Z,3128.00
2019-06-08T14:10:33.483Z,3652.00
2019-06-08T14:12:30.690Z,6316.00
2019-06-08T14:13:31.115Z,4936.00
2019-06-08T14:15:19.543Z,3084.00
2019-06-08T14:16:20.615Z,3072.00
2019-06-08T14:18:12.575Z,4328.00
2019-06-08T14:19:12.634Z,4696.00
2019-06-08T14:21:05.685Z,2828.00
2019-06-08T14:22:05.693Z,2748.00
2019-06-08T14:23:58.860Z,2744.00
2019-06-08T14:24:58.758Z,3036.00
2019-06-08T14:26:51.769Z,3052.00
2019-06-08T14:27:51.802Z,2964.00
2019-06-08T14:29:45.304Z,2852.00
2019-06-08T14:30:45.364Z,3396.00
2019-06-08T14:32:38.375Z,5848.00
2019-06-08T14:33:38.415Z,3804.00
2019-06-08T14:35:31.406Z,3880.00
2019-06-08T14:36:31.469Z,5156.00
2019-06-08T14:38:31.714Z,5504.00
2019-06-08T14:39:24.607Z,5888.00
2019-06-08T14:41:18.246Z,4140.00
2019-06-08T14:42:23.534Z,4796.00
2019-06-08T14:44:10.610Z,5404.00
2019-06-08T14:45:11.001Z,3812.00
2019-06-08T14:47:03.639Z,3180.00
2019-06-08T14:48:03.699Z,3636.00
2019-06-08T14:49:58.462Z,3424.00
2019-06-08T14:50:58.608Z,3392.00
2019-06-08T14:52:50.429Z,4760.00
2019-06-08T14:53:49.807Z,4140.00
2019-06-08T14:55:42.821Z,3396.00
2019-06-08T14:56:42.867Z,3420.00
2019-06-08T14:58:38.390Z,3720.00
2019-06-08T14:59:35.929Z,3336.00
2019-06-08T15:01:31.197Z,2900.00
2019-06-08T15:02:31.310Z,2656.00
2019-06-08T15:04:23.859Z,2508.00
2019-06-08T15:05:23.266Z,2480.00
2019-06-08T15:07:15.044Z,4076.00
2019-06-08T15:08:17.441Z,3872.00
2019-06-08T15:10:10.053Z,2732.00
2019-06-08T15:11:08.294Z,2756.00
2019-06-08T15:13:01.143Z,2800.00
2019-06-08T15:14:01.192Z,3080.00
2019-06-08T15:15:54.207Z,3748.00
2019-06-08T15:16:54.251Z,5088.00
2019-06-08T15:18:47.275Z,3848.00
2019-06-08T15:19:47.594Z,3700.00
2019-06-08T15:21:40.301Z,3412.00
2019-06-08T15:22:40.363Z,2768.00
2019-06-08T15:24:33.377Z,2940.00
2019-06-08T15:25:33.414Z,2536.00
2019-06-08T15:27:30.017Z,2344.00
2019-06-08T15:28:29.013Z,2216.00
2019-06-08T15:30:21.156Z,2808.00
2019-06-08T15:31:21.109Z,4408.00
2019-06-08T15:33:13.027Z,6344.00
2019-06-08T15:34:13.079Z,6348.00
2019-06-08T15:36:08.347Z,6216.00
2019-06-08T15:37:08.772Z,6552.00
2019-06-08T15:38:59.120Z,6912.00
2019-06-08T15:39:59.184Z,5448.00
2019-06-08T15:41:52.215Z,8344.00
2019-06-08T15:42:52.240Z,6932.00
2019-06-08T15:44:47.838Z,4760.00
2019-06-08T15:45:45.290Z,2628.00
2019-06-08T15:47:40.654Z,3588.00
2019-06-08T15:48:38.343Z,4316.00
2019-06-08T15:50:32.627Z,7492.00
2019-06-08T15:51:37.293Z,6512.00
2019-06-08T15:53:24.432Z,5892.00
2019-06-08T15:54:24.660Z,4260.00
2019-06-08T15:56:18.686Z,4612.00
2019-06-08T15:57:18.106Z,5932.00
2019-06-08T15:59:10.554Z,4684.00
2019-06-08T16:00:10.610Z,4596.00
2019-06-08T16:02:03.591Z,3736.00
2019-06-08T16:03:03.651Z,3880.00
2019-06-08T16:04:56.656Z,6612.00
2019-06-08T16:05:56.703Z,6412.00
2019-06-08T16:07:49.738Z,5504.00
2019-06-08T16:08:49.751Z,5484.00
2019-06-08T16:10:42.838Z,5464.00
2019-06-08T16:11:42.802Z,5072.00
2019-06-08T16:13:35.823Z,3996.00
2019-06-08T16:14:35.854Z,3696.00
2019-06-08T16:16:29.145Z,3836.00
2019-06-08T16:17:29.260Z,3800.00
2019-06-08T16:19:21.919Z,6832.00
2019-06-08T16:20:21.971Z,7156.00
2019-06-08T16:22:15.080Z,7040.00
2019-06-08T16:23:15.023Z,6488.00
2019-06-08T16:25:08.040Z,6472.00
2019-06-08T16:26:08.086Z,6788.00
2019-06-08T16:28:01.106Z,6080.00
2019-06-08T16:29:01.161Z,5624.00
2019-06-08T16:30:54.136Z,5156.00
2019-06-08T16:31:54.187Z,4724.00
2019-06-08T16:33:47.211Z,3864.00
2019-06-08T16:34:47.248Z,3760.00
2019-06-08T16:36:40.266Z,4772.00
2019-06-08T16:37:40.313Z,6092.00
2019-06-08T16:39:33.323Z,6948.00
2019-06-08T16:40:34.277Z,6476.00
2019-06-08T16:42:27.584Z,5940.00
2019-06-08T16:43:26.865Z,6420.00
2019-06-08T16:45:20.932Z,7108.00
2019-06-08T16:46:20.974Z,6828.00
2019-06-08T16:48:13.979Z,6112.00
2019-06-08T16:49:14.030Z,6264.00
2019-06-08T16:51:07.029Z,5048.00
2019-06-08T16:52:07.075Z,4828.00
2019-06-08T16:54:00.063Z,5360.00
2019-06-08T16:55:00.124Z,5812.00
2019-06-08T16:57:06.159Z,6532.00
2019-06-08T16:57:53.180Z,6336.00
2019-06-08T16:59:46.172Z,6656.00
2019-06-08T17:00:46.238Z,6484.00
2019-06-08T17:02:39.460Z,6628.00
2019-06-08T17:03:39.290Z,5812.00
2019-06-08T17:05:33.187Z,5224.00
2019-06-08T17:06:33.333Z,4148.00
2019-06-08T17:08:25.353Z,2308.00
2019-06-08T17:09:25.392Z,2372.00
2019-06-08T17:11:18.405Z,1492.00
2019-06-08T17:12:18.557Z,1324.00
2019-06-08T17:14:11.427Z,3120.00
2019-06-08T17:15:11.492Z,3504.00
2019-06-08T17:17:04.493Z,6024.00
2019-06-08T17:18:04.536Z,6672.00
2019-06-08T17:19:57.523Z,5276.00
2019-06-08T17:20:57.585Z,4220.00
2019-06-08T17:22:50.605Z,3180.00
2019-06-08T17:23:50.636Z,2688.00
2019-06-08T17:25:43.624Z,2416.00
2019-06-08T17:26:43.707Z,2276.00
2019-06-08T17:28:37.129Z,2248.00
2019-06-08T17:29:36.879Z,2320.00
2019-06-08T17:31:30.977Z,2672.00
2019-06-08T17:32:29.786Z,2456.00
2019-06-08T17:34:22.814Z,2600.00
2019-06-08T17:35:22.842Z,2328.00
2019-06-08T17:37:15.828Z,1984.00
2019-06-08T17:38:16.129Z,1876.00
2019-06-08T17:40:08.915Z,1784.00
2019-06-08T17:41:08.962Z,1756.00
2019-06-08T17:43:01.934Z,1744.00
2019-06-08T17:44:01.997Z,1748.00